Time;durP1;ratioP1;P1;durP2;ratioP2;P2;SDS_P1;SDS_P2;PMS_P1;PMS_P2;Temp;Humidity;BMP_temperature;BMP_pressure;BME280_temperature;BME280_humidity;BME280_pressure;Samples;Min_cycle;Max_cycle;Signal;HPM_P1;HPM_P2
2023/12/25 00:00:31;;;;;;;1.67;1.10;;;;;;;9.72;58.03;95843.41;4996736;28;20471;-72
2023/12/25 00:02:56;;;;;;;2.60;1.53;;;;;;;9.81;57.94;95856.06;4997148;28;20232;-73
2023/12/25 00:05:22;;;;;;;1.30;1.00;;;;;;;9.73;57.51;95832.88;5033934;28;20257;-74
2023/12/25 00:07:47;;;;;;;1.50;1.10;;;;;;;9.75;58.16;95853.72;4986457;28;20223;-70
2023/12/25 00:10:13;;;;;;;1.93;1.13;;;;;;;9.64;58.28;95856.91;4975799;28;20189;-71
2023/12/25 00:12:38;;;;;;;1.53;1.10;;;;;;;9.64;58.23;95853.44;4986720;28;20555;-72
2023/12/25 00:15:04;;;;;;;1.40;1.10;;;;;;;9.63;58.51;95855.19;5013647;28;20664;-72
2023/12/25 00:17:30;;;;;;;1.70;0.97;;;;;;;9.62;58.16;95863.13;5018045;28;20237;-73
2023/12/25 00:19:56;;;;;;;2.40;1.17;;;;;;;9.70;58.32;95860.97;5008443;28;20540;-69
2023/12/25 00:22:21;;;;;;;1.20;0.97;;;;;;;9.54;58.33;95871.34;4983154;28;20552;-73
2023/12/25 00:24:47;;;;;;;1.70;1.17;;;;;;;9.56;58.04;95887.00;4977594;28;20226;-74
2023/12/25 00:27:12;;;;;;;1.67;1.57;;;;;;;9.42;58.61;95878.00;5002395;28;20189;-74
2023/12/25 00:29:38;;;;;;;1.50;1.00;;;;;;;9.35;59.34;95889.69;5018683;28;20190;-69
2023/12/25 00:32:03;;;;;;;1.77;1.13;;;;;;;9.41;59.06;95892.03;5026288;28;20186;-71
2023/12/25 00:34:29;;;;;;;1.80;1.20;;;;;;;9.42;58.96;95895.50;5012540;28;20204;-73
2023/12/25 00:36:54;;;;;;;2.13;1.00;;;;;;;9.43;58.51;95890.19;4992867;28;20654;-72
2023/12/25 00:39:20;;;;;;;1.40;1.00;;;;;;;9.42;58.83;95896.34;5014897;28;20198;-74
2023/12/25 00:41:46;;;;;;;2.20;1.20;;;;;;;9.37;59.04;95900.97;4999924;28;20200;-70
2023/12/25 00:44:11;;;;;;;2.07;1.20;;;;;;;9.35;59.06;95894.09;5007178;28;20684;-73
2023/12/25 00:46:37;;;;;;;2.27;1.00;;;;;;;9.33;59.10;95881.94;4977131;28;20542;-74
2023/12/25 00:49:02;;;;;;;1.87;1.20;;;;;;;9.31;58.85;95890.78;4992355;28;20629;-73
2023/12/25 00:51:27;;;;;;;1.90;1.30;;;;;;;9.32;59.13;95892.47;4991485;28;20462;-72
2023/12/25 00:53:53;;;;;;;1.60;1.50;;;;;;;9.30;59.01;95891.69;4985898;28;20212;-72
2023/12/25 00:56:19;;;;;;;3.33;1.20;;;;;;;9.21;59.04;95900.84;5012564;28;20182;-72
2023/12/25 00:58:44;;;;;;;1.87;1.03;;;;;;;9.20;59.00;95900.91;4981832;28;20255;-74
2023/12/25 01:01:10;;;;;;;1.97;1.07;;;;;;;9.25;59.27;95902.38;4973569;28;20193;-73
2023/12/25 01:03:35;;;;;;;1.53;1.03;;;;;;;9.15;59.11;95897.66;4972505;28;20208;-71
2023/12/25 01:06:01;;;;;;;3.03;1.27;;;;;;;9.18;59.07;95900.13;4990606;28;20186;-70
2023/12/25 01:08:26;;;;;;;1.17;0.90;;;;;;;9.15;58.95;95906.34;5021198;28;20549;-73
2023/12/25 01:10:52;;;;;;;1.47;1.30;;;;;;;9.15;58.68;95892.44;4990941;28;20182;-72
2023/12/25 01:13:17;;;;;;;2.60;1.30;;;;;;;9.07;59.34;95891.00;4993446;28;20210;-71
2023/12/25 01:15:43;;;;;;;3.33;1.03;;;;;;;9.05;59.48;95886.78;5012592;28;20220;-71
2023/12/25 01:18:08;;;;;;;2.93;1.07;;;;;;;9.08;58.80;95890.06;5002029;28;20254;-70
2023/12/25 01:20:33;;;;;;;1.20;1.00;;;;;;;9.21;58.44;95898.22;5016322;28;20199;-72
2023/12/25 01:22:59;;;;;;;1.10;0.80;;;;;;;9.19;58.34;95896.56;5029550;28;20725;-73
2023/12/25 01:25:24;;;;;;;3.70;1.10;;;;;;;9.10;58.46;95903.94;4997465;28;20179;-72
2023/12/25 01:27:50;;;;;;;2.63;0.97;;;;;;;9.11;58.99;95907.41;4974313;28;20678;-71
2023/12/25 01:30:15;;;;;;;3.70;1.07;;;;;;;9.05;59.01;95903.31;5029688;28;20189;-73
2023/12/25 01:32:41;;;;;;;1.40;1.07;;;;;;;9.13;58.20;95896.88;5048902;28;20201;-73
2023/12/25 01:35:07;;;;;;;2.70;1.30;;;;;;;9.24;58.00;95899.84;4993443;28;20230;-71
2023/12/25 01:37:32;;;;;;;1.10;0.80;;;;;;;9.15;58.31;95897.66;4984431;28;20266;-71
2023/12/25 01:39:57;;;;;;;2.70;1.30;;;;;;;9.21;58.06;95899.97;4970199;28;20247;-71
2023/12/25 01:42:23;;;;;;;1.50;0.90;;;;;;;9.20;57.64;95887.81;5024116;28;20499;-72
2023/12/25 01:44:48;;;;;;;1.20;0.80;;;;;;;9.22;57.69;95891.22;4975954;28;20180;-73
2023/12/25 01:47:18;;;;;;;2.07;1.63;;;;;;;9.33;57.08;95883.72;4975847;28;20263;-72
2023/12/25 01:49:43;;;;;;;3.03;1.00;;;;;;;9.21;57.52;95887.75;4977593;28;20608;-72
2023/12/25 01:52:09;;;;;;;1.47;1.00;;;;;;;9.16;57.24;95891.50;4991841;28;20517;-71
2023/12/25 01:54:37;;;;;;;1.77;1.13;;;;;;;9.26;57.29;95893.63;5010855;28;20202;-72
2023/12/25 01:57:03;;;;;;;2.50;1.30;;;;;;;9.14;57.68;95899.41;4993411;28;20440;-71
2023/12/25 01:59:30;;;;;;;1.97;1.10;;;;;;;9.20;56.67;95898.28;5045841;28;21033;-72
2023/12/25 02:01:57;;;;;;;1.23;1.00;;;;;;;9.18;57.24;95910.59;4990190;28;20440;-71
2023/12/25 02:04:24;;;;;;;2.97;1.20;;;;;;;9.13;56.81;95900.34;4999984;28;20432;-71
2023/12/25 02:06:50;;;;;;;4.60;1.50;;;;;;;9.15;57.03;95900.28;4984422;28;20454;-72
2023/12/25 02:09:16;;;;;;;1.33;1.20;;;;;;;9.12;57.13;95896.03;5019145;28;20769;-72
2023/12/25 02:11:41;;;;;;;1.57;1.30;;;;;;;9.27;56.28;95895.31;5019745;28;20432;-72
2023/12/25 02:14:07;;;;;;;2.43;1.30;;;;;;;9.30;56.26;95889.06;5011243;28;20198;-72
2023/12/25 02:16:35;;;;;;;2.17;1.10;;;;;;;9.24;56.24;95885.00;4981103;28;20236;-71
2023/12/25 02:19:01;;;;;;;2.80;1.37;;;;;;;9.32;55.63;95882.00;4995441;28;20458;-73
2023/12/25 02:21:27;;;;;;;1.87;0.90;;;;;;;9.34;55.11;95877.53;5023643;28;20437;-70
2023/12/25 02:23:59;;;;;;;2.33;1.10;;;;;;;9.30;55.08;95873.38;5029871;28;20448;-70
2023/12/25 02:26:24;;;;;;;1.20;1.00;;;;;;;9.29;55.12;95877.75;5008260;28;20470;-72
2023/12/25 02:28:50;;;;;;;1.20;0.97;;;;;;;9.24;55.22;95878.91;4988420;28;21061;-74
2023/12/25 02:31:16;;;;;;;1.07;0.97;;;;;;;9.33;54.40;95875.88;4985309;28;20200;-72
2023/12/25 02:33:42;;;;;;;1.53;1.00;;;;;;;9.30;54.42;95862.91;5023194;28;20256;-72
2023/12/25 02:36:07;;;;;;;1.20;1.10;;;;;;;9.26;54.70;95871.81;5036461;28;20460;-72
2023/12/25 02:38:33;;;;;;;1.77;1.20;;;;;;;9.23;54.39;95862.31;4971709;28;20206;-71
2023/12/25 02:40:58;;;;;;;1.53;1.17;;;;;;;9.22;54.20;95871.13;4989468;28;20185;-73
2023/12/25 02:43:24;;;;;;;1.77;0.90;;;;;;;9.25;54.40;95873.59;4993026;28;20203;-70
2023/12/25 02:45:49;;;;;;;1.73;0.80;;;;;;;9.09;54.17;95881.31;5015210;28;20394;-72
2023/12/25 02:48:14;;;;;;;1.40;1.23;;;;;;;9.18;54.14;95872.19;4988084;28;20624;-74
2023/12/25 02:50:40;;;;;;;1.23;1.10;;;;;;;9.04;55.16;95883.28;4993495;28;20174;-73
2023/12/25 02:53:05;;;;;;;1.43;0.90;;;;;;;9.08;54.63;95887.47;4975888;28;20656;-74
2023/12/25 02:55:31;;;;;;;1.10;1.00;;;;;;;9.12;54.46;95872.47;4996234;28;20174;-72
2023/12/25 02:57:56;;;;;;;1.90;1.00;;;;;;;9.09;54.71;95878.72;5003456;28;20199;-71
2023/12/25 03:00:22;;;;;;;1.87;1.20;;;;;;;9.10;54.09;95877.78;5031620;28;20182;-73
2023/12/25 03:02:47;;;;;;;1.60;1.00;;;;;;;9.05;53.76;95871.91;5023613;28;20280;-72
2023/12/25 03:05:12;;;;;;;3.97;1.10;;;;;;;9.22;53.26;95872.88;4972337;28;20675;-71
2023/12/25 03:07:38;;;;;;;1.10;1.00;;;;;;;9.11;53.45;95874.22;4983672;28;20182;-71
2023/12/25 03:10:04;;;;;;;1.40;1.30;;;;;;;9.04;53.56;95878.03;4993279;28;20274;-72
2023/12/25 03:12:29;;;;;;;1.10;0.80;;;;;;;9.03;53.77;95873.75;4986483;28;20202;-72
2023/12/25 03:14:54;;;;;;;2.13;0.87;;;;;;;9.06;52.86;95865.75;4969208;28;20174;-73
2023/12/25 03:17:20;;;;;;;1.10;0.83;;;;;;;9.06;53.74;95876.22;4969998;28;20235;-74
2023/12/25 03:19:45;;;;;;;1.40;0.80;;;;;;;9.13;52.71;95865.47;4968185;28;20192;-72
2023/12/25 03:22:11;;;;;;;1.87;1.00;;;;;;;9.15;53.07;95864.47;4965452;28;20174;-73
2023/12/25 03:24:36;;;;;;;1.73;1.10;;;;;;;9.18;52.93;95863.47;4966798;28;20178;-73
2023/12/25 03:27:02;;;;;;;1.70;1.00;;;;;;;9.16;52.67;95855.69;4966658;28;20177;-71
2023/12/25 03:29:28;;;;;;;1.20;0.80;;;;;;;9.08;52.55;95860.44;4966170;28;20182;-73
2023/12/25 03:31:53;;;;;;;2.30;0.90;;;;;;;9.01;52.48;95867.72;4968440;28;20957;-74
2023/12/25 03:34:20;;;;;;;1.30;1.00;;;;;;;9.14;52.50;95869.75;4970074;28;20547;-71
2023/12/25 03:36:45;;;;;;;1.50;1.00;;;;;;;9.14;51.62;95865.38;4969312;28;20489;-71
2023/12/25 03:39:11;;;;;;;3.07;1.17;;;;;;;8.99;52.73;95871.34;4969457;28;20466;-71
2023/12/25 03:41:36;;;;;;;2.50;1.00;;;;;;;8.96;52.70;95876.72;4965242;28;20196;-72
2023/12/25 03:44:02;;;;;;;1.40;1.13;;;;;;;8.95;52.54;95864.53;4966316;28;20201;-70
2023/12/25 03:46:28;;;;;;;3.20;1.10;;;;;;;9.03;52.44;95873.75;4985403;28;20178;-71
2023/12/25 03:48:53;;;;;;;1.93;1.00;;;;;;;9.00;51.72;95867.78;4990013;28;20170;-71
2023/12/25 03:51:19;;;;;;;3.10;1.13;;;;;;;9.14;51.14;95861.91;5008247;28;20254;-72
2023/12/25 03:53:44;;;;;;;1.20;0.90;;;;;;;9.12;51.54;95859.38;4966862;28;20201;-72
2023/12/25 03:56:11;;;;;;;1.00;0.90;;;;;;;9.17;51.23;95857.41;4966535;28;20212;-71
2023/12/25 03:58:37;;;;;;;1.30;1.03;;;;;;;9.04;50.93;95845.78;4966195;28;20189;-72
2023/12/25 04:01:02;;;;;;;1.57;0.93;;;;;;;9.01;51.13;95866.88;4965856;28;20842;-72
2023/12/25 04:03:27;;;;;;;1.40;0.90;;;;;;;9.02;51.53;95853.72;4967236;28;20218;-71
2023/12/25 04:05:53;;;;;;;1.50;0.87;;;;;;;9.04;51.13;95857.09;4967561;28;20182;-71
2023/12/25 04:08:18;;;;;;;1.30;1.00;;;;;;;9.03;50.73;95849.34;5050359;28;20177;-71
2023/12/25 04:10:44;;;;;;;1.10;0.80;;;;;;;8.96;51.36;95859.25;4967865;28;20223;-73
2023/12/25 04:13:10;;;;;;;2.73;1.00;;;;;;;8.92;51.10;95851.59;4975936;28;20208;-71
2023/12/25 04:15:35;;;;;;;2.33;0.83;;;;;;;8.90;50.93;95860.38;4970730;28;20269;-72
2023/12/25 04:18:00;;;;;;;1.40;1.10;;;;;;;9.05;50.99;95850.97;4972454;28;20233;-72
2023/12/25 04:20:26;;;;;;;2.07;0.90;;;;;;;9.00;50.82;95855.56;4974897;28;20603;-71
2023/12/25 04:22:51;;;;;;;1.20;1.00;;;;;;;8.88;51.00;95856.13;5017100;28;20267;-73
2023/12/25 04:25:16;;;;;;;1.33;0.90;;;;;;;8.90;50.67;95857.78;4974938;28;20178;-73
2023/12/25 04:27:42;;;;;;;1.13;0.83;;;;;;;8.84;50.62;95859.81;4972857;28;20239;-75
2023/12/25 04:30:08;;;;;;;2.40;1.80;;;;;;;8.80;50.83;95856.47;5020067;28;20192;-73
2023/12/25 04:32:33;;;;;;;1.80;1.00;;;;;;;8.89;50.19;95868.28;5007520;28;20300;-70
2023/12/25 04:34:58;;;;;;;2.10;0.97;;;;;;;8.77;50.59;95864.47;5011448;28;20182;-70
2023/12/25 04:37:24;;;;;;;1.40;1.00;;;;;;;8.81;50.39;95862.53;4970852;28;20243;-72
2023/12/25 04:39:50;;;;;;;3.83;1.07;;;;;;;8.77;50.67;95868.88;4968306;28;20188;-73
2023/12/25 04:42:15;;;;;;;1.30;1.03;;;;;;;8.74;50.35;95867.22;4975704;28;20593;-73
2023/12/25 04:44:41;;;;;;;1.37;0.90;;;;;;;8.79;49.62;95869.66;4963035;28;20465;-71
2023/12/25 04:47:06;;;;;;;3.07;1.00;;;;;;;8.78;49.26;95871.38;4967988;28;20182;-74
2023/12/25 04:49:32;;;;;;;1.53;1.00;;;;;;;8.76;50.18;95868.00;4963769;28;20561;-71
2023/12/25 04:51:57;;;;;;;2.03;0.93;;;;;;;8.64;49.72;95872.00;4976813;28;20185;-72
2023/12/25 04:54:22;;;;;;;1.30;0.90;;;;;;;8.70;49.21;95878.75;4999349;28;20173;-71
2023/12/25 04:56:48;;;;;;;1.40;1.20;;;;;;;8.71;49.55;95882.19;5003688;28;20178;-70
2023/12/25 04:59:15;;;;;;;1.90;1.07;;;;;;;8.81;48.79;95884.34;5045425;28;20209;-72
2023/12/25 05:01:40;;;;;;;1.70;1.27;;;;;;;8.81;48.31;95891.31;4997234;28;20436;-72
2023/12/25 05:04:06;;;;;;;1.20;1.00;;;;;;;8.66;48.93;95893.72;4976391;28;20463;-70
2023/12/25 05:06:31;;;;;;;4.13;1.40;;;;;;;8.72;48.51;95895.22;5005200;28;20182;-72
2023/12/25 05:08:57;;;;;;;2.87;1.43;;;;;;;8.72;48.66;95886.50;5018026;28;20564;-72
2023/12/25 05:11:23;;;;;;;2.90;1.53;;;;;;;8.66;48.85;95898.09;5004097;28;20263;-72
2023/12/25 05:13:49;;;;;;;4.43;1.70;;;;;;;8.54;48.35;95898.66;4988234;28;20194;-71
2023/12/25 05:16:15;;;;;;;1.47;1.30;;;;;;;8.54;48.36;95899.50;4989766;28;20444;-71
2023/12/25 05:18:40;;;;;;;2.03;1.60;;;;;;;8.60;48.50;95907.09;4972192;28;20220;-72
2023/12/25 05:21:08;;;;;;;3.37;1.67;;;;;;;8.47;48.29;95908.53;5015131;28;20276;-70
2023/12/25 05:23:33;;;;;;;2.67;1.53;;;;;;;8.55;47.97;95908.19;4967104;28;20250;-71
2023/12/25 05:25:59;;;;;;;3.80;1.53;;;;;;;8.43;48.22;95901.72;5004800;28;20515;-72
2023/12/25 05:28:24;;;;;;;4.80;1.57;;;;;;;8.56;48.57;95902.06;4969592;28;20174;-73
2023/12/25 05:30:49;;;;;;;2.90;2.17;;;;;;;8.55;48.25;95906.44;4971614;28;20269;-71
2023/12/25 05:33:15;;;;;;;2.13;1.30;;;;;;;8.63;47.41;95914.78;5008006;28;20259;-72
2023/12/25 05:35:40;;;;;;;2.57;1.83;;;;;;;8.53;47.73;95907.41;5001170;28;20513;-71
2023/12/25 05:38:06;;;;;;;5.73;1.43;;;;;;;8.52;48.15;95911.78;4970746;28;20221;-71
2023/12/25 05:40:31;;;;;;;7.10;1.73;;;;;;;8.54;47.80;95914.34;5010138;28;20181;-72
2023/12/25 05:42:56;;;;;;;2.70;1.10;;;;;;;8.45;48.06;95911.19;4969875;28;20207;-72
2023/12/25 05:45:23;;;;;;;4.17;1.70;;;;;;;8.39;48.75;95910.59;5008040;28;20186;-71
2023/12/25 05:47:48;;;;;;;4.60;1.80;;;;;;;8.48;48.10;95907.63;4966895;28;20197;-70
2023/12/25 05:50:14;;;;;;;2.53;1.00;;;;;;;8.45;48.30;95905.97;4968165;28;20447;-73
2023/12/25 05:52:40;;;;;;;1.70;0.93;;;;;;;8.48;48.65;95902.41;4967987;28;20205;-71
2023/12/25 05:55:06;;;;;;;1.70;1.27;;;;;;;8.44;47.60;95899.06;4961457;28;20649;-70
2023/12/25 05:57:31;;;;;;;2.93;1.50;;;;;;;8.40;47.97;95907.09;4969154;28;20436;-74
2023/12/25 05:59:57;;;;;;;1.37;1.17;;;;;;;8.41;48.48;95901.81;4974796;28;20472;-71
2023/12/25 06:02:22;;;;;;;2.27;0.90;;;;;;;8.40;48.60;95897.47;5008468;28;20221;-72
2023/12/25 06:04:48;;;;;;;1.63;1.10;;;;;;;8.38;49.06;95901.03;4995773;28;20268;-72
2023/12/25 06:07:13;;;;;;;2.57;1.30;;;;;;;8.33;49.43;95910.84;5002952;28;20288;-72
2023/12/25 06:09:39;;;;;;;2.20;1.00;;;;;;;8.30;49.23;95913.59;4987874;28;20217;-71
2023/12/25 06:12:05;;;;;;;2.07;1.03;;;;;;;8.29;49.94;95923.19;4994195;28;20204;-72
2023/12/25 06:14:30;;;;;;;1.50;1.10;;;;;;;8.17;50.17;95921.09;4983777;28;20265;-72
2023/12/25 06:16:55;;;;;;;3.10;1.20;;;;;;;8.20;49.30;95932.28;4992832;28;20644;-71
2023/12/25 06:19:21;;;;;;;2.53;1.30;;;;;;;8.17;49.51;95932.44;4965927;28;20240;-70
2023/12/25 06:21:47;;;;;;;1.57;1.20;;;;;;;8.21;49.41;95930.53;4980282;28;20278;-73
2023/12/25 06:24:12;;;;;;;2.20;1.27;;;;;;;8.27;49.33;95932.88;5001689;28;20259;-72
2023/12/25 06:26:37;;;;;;;13.93;2.20;;;;;;;8.23;49.43;95932.16;5028358;28;20242;-71
2023/12/25 06:29:03;;;;;;;8.73;2.10;;;;;;;8.23;49.26;95926.94;4967601;28;20181;-70
2023/12/25 06:31:28;;;;;;;2.57;1.70;;;;;;;8.20;49.57;95934.06;4959037;28;20190;-71
2023/12/25 06:33:54;;;;;;;1.90;1.70;;;;;;;8.27;49.37;95931.13;4981865;28;20213;-71
2023/12/25 06:36:19;;;;;;;3.67;1.30;;;;;;;8.33;48.53;95937.00;4999832;28;20675;-72
2023/12/25 06:38:44;;;;;;;9.53;1.67;;;;;;;8.33;49.58;95932.59;4991091;28;20205;-72
2023/12/25 06:41:11;;;;;;;3.10;1.20;;;;;;;8.46;48.62;95933.84;4967306;28;20213;-73
2023/12/25 06:43:36;;;;;;;1.80;1.10;;;;;;;8.31;49.03;95925.75;4990749;28;20265;-72
2023/12/25 06:46:02;;;;;;;1.93;1.40;;;;;;;8.31;49.71;95926.59;4966676;28;20962;-71
2023/12/25 06:48:28;;;;;;;4.87;1.47;;;;;;;8.24;49.99;95933.88;4963420;28;20186;-71
2023/12/25 06:50:54;;;;;;;5.13;1.40;;;;;;;8.30;49.97;95929.28;4980544;28;20193;-72
2023/12/25 06:53:19;;;;;;;3.33;1.17;;;;;;;8.32;49.40;95935.31;5020760;28;20530;-72
2023/12/25 06:55:44;;;;;;;6.20;1.23;;;;;;;8.26;49.91;95939.84;5035772;28;20182;-73
2023/12/25 06:58:10;;;;;;;3.03;1.17;;;;;;;8.25;50.35;95935.56;4957327;28;20707;-73
2023/12/25 07:00:35;;;;;;;1.20;1.00;;;;;;;8.23;49.57;95937.38;4970263;28;20264;-72
2023/12/25 07:03:00;;;;;;;1.90;1.13;;;;;;;8.37;50.15;95936.81;4975315;28;20209;-73
2023/12/25 07:05:26;;;;;;;1.87;1.23;;;;;;;8.30;50.52;95934.53;5000467;28;20189;-71
2023/12/25 07:07:51;;;;;;;2.17;1.20;;;;;;;8.34;50.09;95943.91;4997953;28;20201;-73
2023/12/25 07:10:18;;;;;;;1.87;1.20;;;;;;;8.31;50.39;95938.81;5003711;28;20196;-71
2023/12/25 07:12:43;;;;;;;1.30;1.00;;;;;;;8.36;49.44;95948.19;4972452;28;20314;-72
2023/12/25 07:15:09;;;;;;;3.73;1.10;;;;;;;8.41;49.74;95950.59;4980731;28;20953;-72
2023/12/25 07:17:34;;;;;;;6.13;1.03;;;;;;;8.42;50.09;95957.56;5008526;28;20178;-74
2023/12/25 07:20:00;;;;;;;2.43;1.10;;;;;;;8.61;49.54;95958.47;5025142;28;20182;-74
2023/12/25 07:22:27;;;;;;;2.80;1.20;;;;;;;8.41;50.18;95955.84;4959461;28;20212;-74
2023/12/25 07:24:52;;;;;;;2.33;1.00;;;;;;;8.43;50.90;95954.88;4959262;28;20189;-72
2023/12/25 07:27:17;;;;;;;1.93;1.27;;;;;;;8.48;50.46;95966.00;4978899;28;20455;-72
2023/12/25 07:29:43;;;;;;;1.57;1.13;;;;;;;8.51;50.17;95956.31;4980713;28;20269;-71
2023/12/25 07:32:09;;;;;;;2.20;1.00;;;;;;;8.73;49.92;95961.47;4990011;28;20251;-72
2023/12/25 07:34:35;;;;;;;3.60;1.67;;;;;;;9.23;48.70;95958.34;5008770;28;20182;-74
2023/12/25 07:37:01;;;;;;;1.60;1.20;;;;;;;10.15;46.94;95946.13;5016971;28;20970;-73
2023/12/25 07:39:27;;;;;;;1.30;1.10;;;;;;;11.07;44.32;95944.06;4971858;28;20201;-73
2023/12/25 07:41:55;;;;;;;2.70;1.53;;;;;;;10.73;44.67;95945.84;4966071;28;21193;-72
2023/12/25 07:44:21;;;;;;;2.20;1.07;;;;;;;10.27;46.21;95958.63;4997304;28;20185;-72
2023/12/25 07:46:46;;;;;;;4.90;1.60;;;;;;;10.95;44.73;95968.34;5042366;28;20424;-72
2023/12/25 07:49:11;;;;;;;3.37;1.87;;;;;;;11.16;44.55;95961.13;4972645;28;20186;-71
2023/12/25 07:51:37;;;;;;;2.70;2.00;;;;;;;10.74;45.60;95959.81;4966157;28;20200;-72
2023/12/25 07:54:02;;;;;;;4.50;2.20;;;;;;;10.30;46.33;95952.41;4985082;28;20202;-70
2023/12/25 07:56:27;;;;;;;2.00;1.53;;;;;;;10.16;46.91;95958.31;5000159;28;20712;-72
2023/12/25 07:58:53;;;;;;;3.10;1.90;;;;;;;10.18;47.08;95961.69;4974945;28;20718;-71
2023/12/25 08:01:20;;;;;;;1.70;1.40;;;;;;;9.98;47.02;95962.69;5005263;28;20177;-72
2023/12/25 08:03:45;;;;;;;2.73;1.87;;;;;;;10.05;47.29;95964.09;4978575;28;20252;-73
2023/12/25 08:06:11;;;;;;;2.80;1.37;;;;;;;10.18;46.91;95946.84;4975957;28;20465;-71
2023/12/25 08:08:37;;;;;;;2.20;1.30;;;;;;;10.11;47.04;95961.16;4995017;28;20170;-72
2023/12/25 08:11:03;;;;;;;4.20;1.57;;;;;;;10.15;47.10;95964.47;4984448;28;20185;-73
2023/12/25 08:13:28;;;;;;;4.10;1.43;;;;;;;10.41;47.00;95959.75;5025043;28;20768;-69
2023/12/25 08:15:53;;;;;;;2.77;1.80;;;;;;;10.79;46.13;95963.91;5009532;28;20437;-72
2023/12/25 08:18:19;;;;;;;3.93;1.90;;;;;;;10.68;45.54;95968.84;4981228;28;20610;-70
2023/12/25 08:20:44;;;;;;;5.80;2.63;;;;;;;10.46;46.32;95976.94;4984775;28;20181;-72
2023/12/25 08:23:10;;;;;;;7.07;2.80;;;;;;;10.18;46.74;95982.66;5023084;28;20675;-72
2023/12/25 08:25:35;;;;;;;6.17;2.60;;;;;;;10.07;47.47;95977.97;5050456;28;20189;-72
2023/12/25 08:28:00;;;;;;;5.60;2.57;;;;;;;10.21;47.34;95977.28;5032544;28;20181;-71
2023/12/25 08:30:26;;;;;;;4.47;1.90;;;;;;;10.55;46.64;95986.13;4981345;28;20204;-72
2023/12/25 08:32:51;;;;;;;2.50;1.90;;;;;;;10.99;45.78;95990.88;4994721;28;20208;-72
2023/12/25 08:35:17;;;;;;;5.40;2.07;;;;;;;10.99;44.96;95996.97;5013490;28;20228;-71
2023/12/25 08:37:42;;;;;;;2.27;1.70;;;;;;;11.37;45.07;95996.75;5010553;28;20780;-70
2023/12/25 08:40:08;;;;;;;4.20;1.30;;;;;;;11.27;43.97;95999.91;5005040;28;20265;-68
2023/12/25 08:42:34;;;;;;;2.70;1.33;;;;;;;11.64;43.24;96009.31;4980638;28;20198;-73
2023/12/25 08:44:59;;;;;;;3.17;1.77;;;;;;;12.16;41.86;96000.34;4970494;28;20186;-70
2023/12/25 08:47:26;;;;;;;2.93;1.37;;;;;;;12.79;40.41;96008.09;4984918;28;20854;-66
2023/12/25 08:49:52;;;;;;;2.17;1.37;;;;;;;12.96;39.72;96001.00;4960327;28;20178;-68
2023/12/25 08:52:18;;;;;;;1.93;1.20;;;;;;;12.85;39.67;95999.84;4973596;28;20456;-72
2023/12/25 08:54:43;;;;;;;2.47;1.37;;;;;;;12.85;39.74;95999.84;4960074;28;20186;-68
2023/12/25 08:57:08;;;;;;;2.07;1.20;;;;;;;13.22;39.10;95996.78;4964067;28;20252;-67
2023/12/25 08:59:34;;;;;;;8.80;2.50;;;;;;;13.77;38.08;95994.25;4965468;28;20198;-69
2023/12/25 09:01:59;;;;;;;2.97;1.40;;;;;;;14.63;36.55;95998.44;4962947;28;20785;-71
2023/12/25 09:04:25;;;;;;;4.50;1.87;;;;;;;15.03;35.74;96008.97;4997156;28;20206;-68
2023/12/25 09:06:50;;;;;;;3.07;1.60;;;;;;;14.55;36.14;96003.34;4956488;28;20174;-71
2023/12/25 09:09:15;;;;;;;3.33;1.50;;;;;;;13.49;38.42;96012.75;4965408;28;20265;-72
2023/12/25 09:11:41;;;;;;;7.03;1.87;;;;;;;13.17;38.93;96010.22;4963905;28;20189;-70
2023/12/25 09:14:06;;;;;;;9.53;2.03;;;;;;;13.18;38.65;96024.25;4958401;28;20208;-71
2023/12/25 09:16:32;;;;;;;7.90;2.10;;;;;;;12.84;39.18;96024.47;4964215;28;20933;-70
2023/12/25 09:18:57;;;;;;;2.20;1.27;;;;;;;12.26;39.92;96035.75;4963140;28;20271;-71
2023/12/25 09:21:23;;;;;;;1.90;1.40;;;;;;;11.90;40.37;96047.34;4962997;28;20177;-72
2023/12/25 09:23:48;;;;;;;5.40;1.43;;;;;;;11.81;41.49;96053.06;4965667;28;20680;-72
2023/12/25 09:26:20;;;;;;;3.97;1.90;;;;;;;11.69;41.75;96051.97;4966509;28;20550;-71
2023/12/25 09:28:47;;;;;;;6.03;1.70;;;;;;;11.80;41.29;96060.13;4966081;28;20178;-70
2023/12/25 09:31:13;;;;;;;2.97;1.77;;;;;;;11.96;41.23;96062.81;4962973;28;20829;-71
2023/12/25 09:33:39;;;;;;;3.60;1.80;;;;;;;12.36;40.39;96063.22;4965395;28;20484;-70
2023/12/25 09:36:06;;;;;;;2.40;1.50;;;;;;;12.32;40.16;96056.44;4965468;28;20502;-72
2023/12/25 09:38:31;;;;;;;3.37;1.60;;;;;;;12.48;39.49;96061.69;4957080;28;20473;-69
2023/12/25 09:40:57;;;;;;;2.43;1.73;;;;;;;12.55;39.07;96059.56;4962580;28;20459;-71
2023/12/25 09:43:23;;;;;;;2.40;1.70;;;;;;;12.50;38.93;96065.09;4964280;28;20215;-70
2023/12/25 09:45:49;;;;;;;2.03;1.67;;;;;;;12.58;39.10;96070.75;4961810;28;20200;-70
2023/12/25 09:48:17;;;;;;;3.83;1.60;;;;;;;12.88;38.62;96069.94;4963135;28;20437;-70
2023/12/25 09:50:43;;;;;;;6.13;1.93;;;;;;;12.68;38.67;96068.44;4963107;28;20352;-70
2023/12/25 09:53:08;;;;;;;3.30;1.70;;;;;;;12.77;38.96;96065.25;4962082;28;21008;-71
2023/12/25 09:55:34;;;;;;;4.03;1.70;;;;;;;12.86;37.97;96061.25;4969273;28;20264;-69
2023/12/25 09:58:03;;;;;;;5.53;1.73;;;;;;;12.80;38.06;96054.53;4959364;28;20228;-68
2023/12/25 10:00:29;;;;;;;1.83;1.20;;;;;;;12.95;37.97;96051.97;5003500;28;20174;-69
2023/12/25 10:02:57;;;;;;;5.83;2.20;;;;;;;13.07;36.64;96051.25;4966285;28;21050;-68
2023/12/25 10:05:22;;;;;;;1.60;1.30;;;;;;;12.88;37.02;96049.69;4965486;28;20182;-69
2023/12/25 10:07:48;;;;;;;2.93;1.50;;;;;;;12.68;37.34;96058.78;4960265;28;20988;-71
2023/12/25 10:10:13;;;;;;;2.30;1.63;;;;;;;12.91;37.40;96064.47;4958860;28;20194;-70
2023/12/25 10:12:45;;;;;;;4.13;2.80;;;;;;;14.67;62.44;96063.31;4969476;28;20212;-68
2023/12/25 10:15:13;;;;;;;2.80;1.20;;;;;;;13.84;36.55;96047.47;4959995;28;20196;-69
2023/12/25 10:17:39;;;;;;;3.00;1.60;;;;;;;13.64;36.31;96055.75;4964722;28;20563;-70
2023/12/25 10:20:07;;;;;;;3.00;2.10;;;;;;;13.50;36.13;96049.53;4964562;28;20528;-70
2023/12/25 10:22:38;;;;;;;1.60;1.50;;;;;;;13.43;36.16;96047.38;4982924;28;20250;-69
2023/12/25 10:25:09;;;;;;;2.00;1.37;;;;;;;13.59;35.91;96053.41;5025502;28;20520;-69
2023/12/25 10:27:37;;;;;;;2.03;1.63;;;;;;;13.29;35.70;96048.19;5007118;28;20500;-68
2023/12/25 10:30:03;;;;;;;3.40;1.83;;;;;;;13.20;35.86;96049.56;4968796;28;21112;-68
2023/12/25 10:32:31;;;;;;;2.20;1.53;;;;;;;13.24;35.68;96051.06;5014043;28;20444;-70
2023/12/25 10:35:19;;;;;;;1.70;1.60;;;;;;;13.20;34.79;96059.25;5022053;28;20574;-69
2023/12/25 10:37:45;;;;;;;1.63;1.40;;;;;;;13.38;34.62;96046.81;5006048;28;20483;-71
2023/12/25 10:40:22;;;;;;;1.67;1.40;;;;;;;13.36;34.79;96051.31;4970519;28;20417;-69
2023/12/25 10:42:50;;;;;;;2.80;1.80;;;;;;;13.32;34.28;96043.59;4993168;28;21155;-71
2023/12/25 10:45:22;;;;;;;12.20;3.00;;;;;;;13.46;33.80;96041.91;5022027;28;20441;-69
2023/12/25 10:47:52;;;;;;;26.00;3.73;;;;;;;13.53;34.24;96037.94;5026628;28;20437;-70
2023/12/25 10:50:26;;;;;;;34.30;4.93;;;;;;;13.58;33.42;96035.88;5000099;28;20824;-70
2023/12/25 10:52:59;;;;;;;24.53;3.37;;;;;;;13.65;33.18;96026.63;5025199;28;20500;-71
2023/12/25 10:55:46;;;;;;;2.73;2.17;;;;;;;13.58;32.92;96033.22;5014654;28;20433;-70
2023/12/25 10:58:12;;;;;;;1.83;1.00;;;;;;;13.62;32.69;96026.84;4999168;28;20448;-71
2023/12/25 11:00:49;;;;;;;4.87;1.83;;;;;;;13.71;32.34;96036.81;5025489;28;20497;-70
2023/12/25 11:03:15;;;;;;;4.40;1.47;;;;;;;13.74;32.85;96028.69;4972506;28;20453;-69
2023/12/25 11:05:41;;;;;;;2.03;1.50;;;;;;;13.77;32.53;96032.94;4970415;28;20424;-70
2023/12/25 11:08:08;;;;;;;3.07;1.53;;;;;;;13.88;32.34;96033.13;5013145;28;20205;-69
2023/12/25 11:10:35;;;;;;;2.23;1.43;;;;;;;13.66;33.03;96040.69;5009193;28;20236;-69
2023/12/25 11:13:01;;;;;;;8.53;2.13;;;;;;;13.62;32.44;96039.19;5012199;28;20454;-70
2023/12/25 11:15:26;;;;;;;5.03;1.47;;;;;;;13.36;33.05;96024.97;5008789;28;20796;-69
2023/12/25 11:17:52;;;;;;;3.20;1.40;;;;;;;13.09;33.88;96023.03;5010973;28;20743;-70
2023/12/25 11:20:18;;;;;;;5.93;1.97;;;;;;;13.10;33.66;96024.72;5019597;28;20551;-69
2023/12/25 11:22:46;;;;;;;3.33;1.50;;;;;;;13.11;33.69;96026.44;5030193;28;20201;-71
2023/12/25 11:25:18;;;;;;;3.73;1.80;;;;;;;13.31;33.72;96017.34;5016559;28;20182;-68
2023/12/25 11:27:51;;;;;;;3.07;1.33;;;;;;;13.11;33.24;96007.97;5005845;28;20456;-69
2023/12/25 11:30:18;;;;;;;2.37;1.70;;;;;;;12.96;33.79;96014.16;5013297;28;20915;-70
2023/12/25 11:32:47;;;;;;;2.90;1.47;;;;;;;12.83;34.34;96007.00;5023961;28;20534;-71